createdAt,value
2019-03-23T00:01:12.942Z,11.16
2019-03-23T00:03:46.992Z,11.19
2019-03-23T00:06:30.263Z,11.12
2019-03-23T00:08:56.382Z,11.17
2019-03-23T00:11:30.058Z,11.14
2019-03-23T00:14:03.801Z,11.15
2019-03-23T00:16:37.842Z,11.11
2019-03-23T00:19:11.848Z,11.00
2019-03-23T00:21:47.128Z,11.07
2019-03-23T00:24:22.382Z,11.05
2019-03-23T00:26:55.966Z,11.00
2019-03-23T00:29:30.196Z,10.93
2019-03-23T00:32:05.275Z,10.92
2019-03-23T00:34:38.752Z,10.91
2019-03-23T00:37:12.785Z,10.83
2019-03-23T00:39:46.360Z,10.80
2019-03-23T00:42:20.892Z,10.80
2019-03-23T00:44:54.928Z,10.82
2019-03-23T00:47:28.520Z,10.92
2019-03-23T00:50:03.019Z,10.88
2019-03-23T00:52:38.035Z,10.92
2019-03-23T00:55:11.698Z,10.80
2019-03-23T00:57:45.083Z,10.82
2019-03-23T01:00:20.234Z,10.80
2019-03-23T01:02:55.266Z,10.75
2019-03-23T01:05:29.691Z,10.72
2019-03-23T01:08:03.556Z,10.76
2019-03-23T01:10:39.637Z,10.74
2019-03-23T01:13:13.313Z,10.77
2019-03-23T01:15:49.591Z,10.78
2019-03-23T01:18:25.174Z,10.70
2019-03-23T01:21:01.343Z,10.54
2019-03-23T01:23:35.111Z,10.54
2019-03-23T01:26:08.822Z,10.62
2019-03-23T01:28:42.936Z,10.20
2019-03-23T01:31:16.534Z,9.96
2019-03-23T01:33:50.070Z,9.75
2019-03-23T01:36:25.242Z,9.78
2019-03-23T01:38:58.403Z,9.81
2019-03-23T01:41:32.879Z,9.60
2019-03-23T01:44:06.627Z,9.84
2019-03-23T01:46:40.813Z,9.86
2019-03-23T01:49:15.794Z,9.87
2019-03-23T01:51:49.350Z,9.87
2019-03-23T01:54:23.687Z,9.89
2019-03-23T01:56:57.598Z,9.79
2019-03-23T01:59:31.092Z,9.81
2019-03-23T02:02:05.129Z,9.67
2019-03-23T02:04:38.722Z,9.58
2019-03-23T02:07:14.012Z,9.49
2019-03-23T02:09:47.483Z,9.46
2019-03-23T02:12:21.681Z,9.57
2019-03-23T02:14:54.918Z,9.47
2019-03-23T02:17:28.756Z,9.24
2019-03-23T02:20:02.387Z,9.08
2019-03-23T02:22:36.558Z,9.13
2019-03-23T02:25:12.036Z,9.28
2019-03-23T02:27:45.603Z,9.08
2019-03-23T02:30:19.331Z,9.08
2019-03-23T02:32:53.288Z,9.01
2019-03-23T02:35:27.240Z,8.89
2019-03-23T02:38:01.676Z,8.85
2019-03-23T02:40:36.484Z,8.74
2019-03-23T02:43:10.708Z,8.65
2019-03-23T02:45:44.370Z,8.54
2019-03-23T02:48:18.276Z,8.44
2019-03-23T02:50:52.332Z,8.31
2019-03-23T02:53:25.534Z,8.24
2019-03-23T02:55:59.833Z,8.17
2019-03-23T02:58:33.428Z,8.02
2019-03-23T03:01:07.251Z,8.02
2019-03-23T03:03:41.272Z,7.95
2019-03-23T03:06:15.186Z,7.91
2019-03-23T03:08:48.435Z,7.73
2019-03-23T03:11:21.578Z,7.72
2019-03-23T03:13:55.501Z,7.60
2019-03-23T03:16:29.432Z,7.60
2019-03-23T03:19:03.262Z,7.51
2019-03-23T03:21:36.567Z,7.38
2019-03-23T03:24:10.734Z,7.31
2019-03-23T03:26:44.374Z,7.18
2019-03-23T03:29:18.213Z,7.02
2019-03-23T03:31:52.537Z,6.90
2019-03-23T03:34:26.023Z,6.84
2019-03-23T03:36:59.927Z,6.81
2019-03-23T03:39:33.866Z,6.85
2019-03-23T03:42:07.821Z,6.68
2019-03-23T03:44:41.548Z,6.60
2019-03-23T03:47:15.730Z,6.51
2019-03-23T03:49:49.672Z,6.50
2019-03-23T03:52:23.720Z,6.55
2019-03-23T03:54:56.983Z,6.54
2019-03-23T03:57:31.005Z,6.36
2019-03-23T04:00:06.195Z,6.26
2019-03-23T04:02:40.748Z,6.18
2019-03-23T04:05:15.074Z,6.18
2019-03-23T04:07:49.072Z,6.22
2019-03-23T04:10:24.048Z,6.29
2019-03-23T04:12:58.469Z,6.22
2019-03-23T04:15:32.486Z,6.24
2019-03-23T04:18:07.615Z,6.26
2019-03-23T04:20:41.331Z,6.21
2019-03-23T04:23:15.247Z,6.22
2019-03-23T04:25:48.390Z,6.39
2019-03-23T04:28:22.269Z,6.21
2019-03-23T04:30:56.753Z,6.25
2019-03-23T04:33:29.949Z,6.25
2019-03-23T04:36:03.559Z,6.09
2019-03-23T04:38:37.813Z,6.03
2019-03-23T04:41:11.924Z,6.03
2019-03-23T04:43:46.348Z,6.11
2019-03-23T04:46:20.169Z,6.13
2019-03-23T04:48:54.015Z,6.01
2019-03-23T04:51:27.654Z,6.01
2019-03-23T04:54:01.090Z,6.01
2019-03-23T04:56:35.112Z,6.02
2019-03-23T04:59:08.595Z,6.01
2019-03-23T05:01:42.714Z,6.04
2019-03-23T05:04:16.306Z,6.07
2019-03-23T05:06:50.345Z,6.14
2019-03-23T05:09:24.580Z,6.17
2019-03-23T05:11:58.560Z,6.17
2019-03-23T05:14:32.223Z,6.22
2019-03-23T05:17:05.788Z,6.12
2019-03-23T05:19:39.871Z,6.17
2019-03-23T05:22:12.969Z,6.28
2019-03-23T05:24:46.877Z,6.20
2019-03-23T05:27:20.147Z,6.05
2019-03-23T05:29:53.655Z,6.11
2019-03-23T05:32:27.179Z,6.11
2019-03-23T05:35:01.011Z,6.11
2019-03-23T05:37:34.689Z,6.16
2019-03-23T05:40:08.886Z,6.06
2019-03-23T05:42:42.514Z,5.84
2019-03-23T05:45:16.857Z,5.85
2019-03-23T05:47:51.203Z,5.82
2019-03-23T05:50:25.422Z,5.89
2019-03-23T05:52:58.654Z,5.87
2019-03-23T05:55:32.898Z,5.92
2019-03-23T05:58:06.582Z,5.85
2019-03-23T06:00:40.150Z,5.89
2019-03-23T06:03:13.268Z,5.88
2019-03-23T06:05:47.260Z,5.88
2019-03-23T06:08:20.443Z,5.79
2019-03-23T06:10:54.450Z,5.65
2019-03-23T06:13:27.675Z,5.69
2019-03-23T06:16:01.676Z,5.72
2019-03-23T06:18:35.390Z,5.75
2019-03-23T06:21:08.970Z,5.73
2019-03-23T06:23:42.616Z,5.78
2019-03-23T06:26:16.232Z,5.84
2019-03-23T06:28:50.001Z,5.92
2019-03-23T06:31:24.045Z,5.84
2019-03-23T06:33:58.039Z,5.70
2019-03-23T06:36:31.628Z,5.73
2019-03-23T06:39:06.863Z,5.73
2019-03-23T06:41:40.762Z,5.77
2019-03-23T06:44:14.457Z,5.75
2019-03-23T06:46:47.547Z,5.68
2019-03-23T06:49:21.072Z,5.60
2019-03-23T06:51:54.360Z,5.46
2019-03-23T06:54:28.481Z,5.43
2019-03-23T06:57:02.011Z,5.56
2019-03-23T06:59:35.696Z,5.55
2019-03-23T07:02:09.308Z,5.58
2019-03-23T07:04:43.321Z,5.57
2019-03-23T07:07:18.216Z,5.67
2019-03-23T07:09:51.918Z,5.68
2019-03-23T07:12:25.567Z,5.71
2019-03-23T07:14:59.855Z,5.71
2019-03-23T07:17:33.347Z,5.69
2019-03-23T07:20:07.986Z,5.64
2019-03-23T07:22:41.749Z,5.59
2019-03-23T07:25:15.396Z,5.55
2019-03-23T07:27:49.420Z,5.61
2019-03-23T07:30:23.289Z,5.50
2019-03-23T07:32:56.704Z,5.48
2019-03-23T07:35:32.162Z,5.64
2019-03-23T07:38:05.896Z,5.64
2019-03-23T07:40:39.483Z,5.80
2019-03-23T07:43:13.229Z,5.60
2019-03-23T07:45:47.180Z,5.45
2019-03-23T07:48:21.367Z,5.43
2019-03-23T07:50:57.536Z,5.37
2019-03-23T07:53:31.161Z,5.35
2019-03-23T07:56:05.274Z,5.40
2019-03-23T07:58:38.952Z,5.36
2019-03-23T08:01:12.956Z,5.33
2019-03-23T08:03:46.678Z,5.37
2019-03-23T08:06:21.017Z,5.40
2019-03-23T08:08:55.860Z,5.42
2019-03-23T08:11:29.791Z,5.33
2019-03-23T08:14:03.785Z,5.48
2019-03-23T08:16:38.231Z,5.55
2019-03-23T08:19:12.417Z,5.63
2019-03-23T08:21:46.114Z,5.57
2019-03-23T08:24:19.306Z,5.44
2019-03-23T08:26:52.484Z,5.70
2019-03-23T08:29:26.743Z,5.82
2019-03-23T08:32:00.504Z,5.64
2019-03-23T08:34:34.207Z,5.57
2019-03-23T08:37:08.219Z,5.80
2019-03-23T08:39:48.508Z,5.97
2019-03-23T08:42:19.341Z,6.03
2019-03-23T08:44:53.545Z,6.48
2019-03-23T08:47:27.508Z,6.58
2019-03-23T08:50:01.149Z,6.55
2019-03-23T08:52:35.247Z,6.46
2019-03-23T08:55:08.653Z,6.29
2019-03-23T08:57:42.367Z,6.47
2019-03-23T09:00:18.347Z,6.45
2019-03-23T09:02:52.329Z,6.57
2019-03-23T09:05:26.031Z,6.84
2019-03-23T09:08:00.133Z,6.83
2019-03-23T09:10:33.854Z,7.22
2019-03-23T09:13:07.857Z,7.13
2019-03-23T09:15:42.024Z,7.01
2019-03-23T09:18:15.433Z,6.81
2019-03-23T09:20:49.156Z,7.15
2019-03-23T09:23:23.149Z,6.93
2019-03-23T09:25:57.241Z,7.03
2019-03-23T09:28:31.693Z,7.05
2019-03-23T09:31:05.922Z,7.35
2019-03-23T09:33:40.326Z,7.48
2019-03-23T09:36:14.256Z,7.65
2019-03-23T09:38:48.224Z,7.31
2019-03-23T09:41:21.411Z,7.51
2019-03-23T09:43:54.666Z,7.64
2019-03-23T09:46:28.358Z,7.85
2019-03-23T09:49:02.482Z,8.01
2019-03-23T09:51:36.660Z,8.34
2019-03-23T09:54:09.779Z,8.13
2019-03-23T09:56:43.567Z,7.90
2019-03-23T09:59:18.038Z,7.69
2019-03-23T10:01:52.259Z,7.84
2019-03-23T10:04:25.950Z,7.89
2019-03-23T10:07:00.004Z,7.91
2019-03-23T10:09:34.485Z,7.89
2019-03-23T10:12:08.944Z,8.16
2019-03-23T10:14:43.286Z,8.12
2019-03-23T10:17:17.695Z,8.37
2019-03-23T10:19:58.338Z,8.26
2019-03-23T10:22:33.179Z,8.07
2019-03-23T10:25:08.020Z,8.07
2019-03-23T10:27:41.401Z,8.18
2019-03-23T10:30:16.009Z,8.40
2019-03-23T10:32:49.952Z,8.52
2019-03-23T10:35:24.033Z,8.87
2019-03-23T10:37:58.119Z,8.71
2019-03-23T10:40:32.916Z,9.36
2019-03-23T10:43:07.198Z,9.08
2019-03-23T10:45:44.277Z,9.29
2019-03-23T10:48:16.626Z,9.26
2019-03-23T10:50:50.459Z,9.29
2019-03-23T10:53:24.541Z,9.03
2019-03-23T10:55:57.619Z,9.15
2019-03-23T10:58:31.327Z,9.46
2019-03-23T11:01:05.042Z,9.80
2019-03-23T11:03:38.748Z,10.14
2019-03-23T11:06:12.663Z,9.71
2019-03-23T11:08:46.684Z,9.75
2019-03-23T11:11:21.038Z,9.55
2019-03-23T11:13:55.027Z,9.76
2019-03-23T11:16:28.274Z,9.57
2019-03-23T11:19:02.015Z,9.66
2019-03-23T11:21:35.636Z,10.17
2019-03-23T11:24:09.723Z,10.09
2019-03-23T11:26:43.791Z,9.94
2019-03-23T11:29:17.029Z,10.61
2019-03-23T11:31:50.836Z,10.80
2019-03-23T11:34:25.058Z,11.70
2019-03-23T11:36:58.915Z,12.27
2019-03-23T11:39:32.855Z,12.79
2019-03-23T11:42:06.800Z,12.03
2019-03-23T11:44:40.130Z,12.48
2019-03-23T11:47:14.378Z,14.19
2019-03-23T11:49:48.394Z,13.92
2019-03-23T11:52:22.419Z,14.07
2019-03-23T11:54:56.027Z,14.88
2019-03-23T11:57:30.153Z,14.71
2019-03-23T12:00:04.148Z,13.90
2019-03-23T12:02:38.254Z,13.05
2019-03-23T12:05:11.487Z,12.62
2019-03-23T12:07:45.681Z,12.52
2019-03-23T12:10:19.761Z,13.81
2019-03-23T12:12:54.105Z,13.73
2019-03-23T12:15:30.244Z,13.37
2019-03-23T12:18:04.484Z,14.82
2019-03-23T12:20:38.288Z,14.36
2019-03-23T12:23:11.573Z,14.99
2019-03-23T12:25:45.543Z,15.80
2019-03-23T12:28:21.027Z,15.17
2019-03-23T12:30:55.594Z,14.59
2019-03-23T12:33:31.310Z,14.71
2019-03-23T12:36:05.281Z,14.68
2019-03-23T12:38:38.679Z,14.46
2019-03-23T12:41:22.724Z,14.18
2019-03-23T12:43:51.293Z,14.01
2019-03-23T12:46:26.567Z,13.56
2019-03-23T12:49:00.545Z,13.23
2019-03-23T12:51:36.858Z,13.53
2019-03-23T12:54:10.728Z,14.06
2019-03-23T12:56:44.330Z,13.79
2019-03-23T12:59:18.090Z,13.09
2019-03-23T13:01:52.093Z,12.76
2019-03-23T13:04:26.184Z,13.11
2019-03-23T13:07:00.208Z,12.76
2019-03-23T13:09:35.476Z,12.96
2019-03-23T13:12:09.162Z,12.28
2019-03-23T13:14:43.552Z,12.17
2019-03-23T13:17:19.942Z,12.34
2019-03-23T13:19:54.352Z,12.39
2019-03-23T13:22:28.074Z,12.41
2019-03-23T13:25:01.401Z,12.46
2019-03-23T13:27:35.716Z,13.13
2019-03-23T13:30:10.440Z,13.77
2019-03-23T13:32:44.616Z,13.92
2019-03-23T13:35:17.744Z,13.80
2019-03-23T13:37:51.553Z,13.87
2019-03-23T13:40:25.509Z,13.52
2019-03-23T13:42:59.945Z,13.60
2019-03-23T13:45:42.399Z,13.80
2019-03-23T13:48:09.189Z,13.64
2019-03-23T13:50:42.842Z,13.15
2019-03-23T13:53:17.131Z,13.67
2019-03-23T13:55:51.102Z,13.35
2019-03-23T13:58:24.658Z,13.10
2019-03-23T14:00:58.309Z,13.55
2019-03-23T14:03:31.534Z,12.85
2019-03-23T14:06:05.134Z,13.10
2019-03-23T14:08:39.375Z,12.82
2019-03-23T14:11:13.386Z,12.61
2019-03-23T14:13:50.257Z,12.56
2019-03-23T14:16:24.148Z,12.53
2019-03-23T14:18:58.586Z,12.28
2019-03-23T14:21:32.273Z,12.05
2019-03-23T14:24:06.311Z,12.22
2019-03-23T14:26:40.752Z,12.03
2019-03-23T14:29:14.048Z,12.17
2019-03-23T14:31:48.067Z,12.28
2019-03-23T14:34:21.304Z,12.35
2019-03-23T14:36:57.268Z,12.06
2019-03-23T14:39:31.506Z,12.42
2019-03-23T14:42:05.395Z,11.69
2019-03-23T14:44:39.154Z,11.65
2019-03-23T14:47:13.349Z,11.69
2019-03-23T14:49:47.462Z,11.74
2019-03-23T14:52:21.317Z,11.61
2019-03-23T14:54:55.957Z,11.83
2019-03-23T14:57:29.931Z,11.90
2019-03-23T15:00:04.617Z,11.78
2019-03-23T15:02:38.393Z,11.61
2019-03-23T15:05:12.073Z,11.44
2019-03-23T15:07:46.566Z,11.46
2019-03-23T15:10:19.891Z,11.25
2019-03-23T15:12:53.528Z,11.26
2019-03-23T15:15:27.092Z,11.04
2019-03-23T15:18:01.175Z,10.98
2019-03-23T15:20:35.289Z,11.06
2019-03-23T15:23:08.881Z,11.13
2019-03-23T15:25:42.951Z,11.17
2019-03-23T15:28:17.244Z,11.28
2019-03-23T15:30:51.360Z,11.25
2019-03-23T15:33:25.069Z,11.27
2019-03-23T15:35:59.578Z,11.25
2019-03-23T15:38:33.457Z,11.45
2019-03-23T15:41:07.669Z,11.50
2019-03-23T15:43:41.685Z,11.45
2019-03-23T15:46:15.355Z,11.39
2019-03-23T15:48:49.485Z,11.40
2019-03-23T15:51:23.495Z,11.47
2019-03-23T15:53:57.574Z,11.55
2019-03-23T15:56:31.231Z,11.37
2019-03-23T15:59:05.366Z,11.39
2019-03-23T16:01:39.388Z,11.18
2019-03-23T16:04:12.962Z,11.22
2019-03-23T16:06:47.109Z,11.24
2019-03-23T16:09:21.174Z,11.18
2019-03-23T16:11:55.259Z,11.19
2019-03-23T16:14:29.685Z,11.03
2019-03-23T16:17:05.156Z,11.14
2019-03-23T16:19:40.243Z,11.11
2019-03-23T16:22:13.359Z,10.81
2019-03-23T16:24:47.300Z,10.78
2019-03-23T16:27:21.849Z,10.88
2019-03-23T16:29:55.905Z,10.63
2019-03-23T16:32:29.634Z,10.55
2019-03-23T16:35:03.664Z,10.49
2019-03-23T16:37:37.357Z,10.49
2019-03-23T16:40:11.717Z,10.42
2019-03-23T16:42:45.843Z,10.23
2019-03-23T16:45:19.302Z,10.31
2019-03-23T16:47:56.360Z,10.13
2019-03-23T16:50:32.008Z,10.09
2019-03-23T16:53:07.607Z,10.15
2019-03-23T16:55:41.554Z,10.07
2019-03-23T16:58:16.282Z,9.94
2019-03-23T17:00:50.691Z,10.01
2019-03-23T17:03:24.509Z,9.97
2019-03-23T17:05:58.334Z,9.93
2019-03-23T17:08:32.383Z,9.86
2019-03-23T17:11:05.624Z,9.79
2019-03-23T17:13:40.196Z,9.64
2019-03-23T17:16:13.876Z,9.63
2019-03-23T17:18:47.533Z,9.50
2019-03-23T17:21:23.016Z,9.52
2019-03-23T17:23:57.055Z,9.50
2019-03-23T17:26:31.427Z,9.38
2019-03-23T17:29:05.893Z,9.37
2019-03-23T17:31:40.021Z,9.42
2019-03-23T17:34:14.440Z,9.45
2019-03-23T17:36:48.103Z,9.51
2019-03-23T17:39:22.656Z,9.51
2019-03-23T17:41:56.849Z,9.48
2019-03-23T17:44:31.970Z,9.35
2019-03-23T17:47:05.309Z,9.27
2019-03-23T17:49:39.405Z,9.25
2019-03-23T17:52:13.204Z,9.30
2019-03-23T17:54:46.819Z,9.34
2019-03-23T17:57:20.104Z,9.28
2019-03-23T17:59:54.390Z,9.45
2019-03-23T18:02:28.180Z,9.34
2019-03-23T18:05:02.389Z,9.27
2019-03-23T18:07:37.115Z,9.19
2019-03-23T18:10:10.983Z,9.23
2019-03-23T18:12:45.180Z,9.35
2019-03-23T18:15:19.662Z,9.27
2019-03-23T18:17:53.240Z,9.25
2019-03-23T18:20:27.729Z,9.24
2019-03-23T18:23:01.442Z,9.35
2019-03-23T18:25:35.470Z,9.17
2019-03-23T18:28:09.563Z,9.11
2019-03-23T18:30:43.850Z,9.32
2019-03-23T18:33:17.786Z,9.22
2019-03-23T18:35:52.040Z,9.22
2019-03-23T18:38:26.597Z,8.89
2019-03-23T18:40:59.848Z,8.59
2019-03-23T18:43:34.014Z,8.41
2019-03-23T18:46:07.801Z,8.29
2019-03-23T18:48:41.652Z,8.11
2019-03-23T18:51:15.806Z,8.05
2019-03-23T18:53:50.132Z,8.02
2019-03-23T18:56:22.973Z,7.89
2019-03-23T18:58:56.780Z,7.96
2019-03-23T19:01:30.691Z,7.87
2019-03-23T19:04:03.950Z,7.91
2019-03-23T19:06:38.300Z,7.77
2019-03-23T19:09:12.035Z,7.72
2019-03-23T19:11:45.611Z,7.71
2019-03-23T19:14:20.132Z,7.63
2019-03-23T19:16:54.132Z,7.50
2019-03-23T19:19:27.768Z,7.58
2019-03-23T19:22:01.747Z,7.64
2019-03-23T19:24:35.337Z,7.59
2019-03-23T19:27:09.081Z,7.54
2019-03-23T19:29:43.265Z,7.65
2019-03-23T19:32:17.518Z,7.63
2019-03-23T19:34:50.756Z,7.58
2019-03-23T19:37:24.515Z,7.60
2019-03-23T19:39:58.613Z,7.60
2019-03-23T19:42:33.128Z,7.57
2019-03-23T19:45:07.291Z,7.52
2019-03-23T19:47:41.845Z,7.54
2019-03-23T19:50:15.875Z,7.51
2019-03-23T19:52:50.079Z,7.46
2019-03-23T19:55:24.207Z,7.45
2019-03-23T19:57:57.516Z,7.46
2019-03-23T20:00:31.950Z,7.45
2019-03-23T20:03:05.949Z,7.43
2019-03-23T20:05:39.841Z,7.39
2019-03-23T20:08:12.751Z,7.44
2019-03-23T20:10:46.423Z,7.34
2019-03-23T20:13:20.157Z,7.38
2019-03-23T20:15:54.286Z,7.42
2019-03-23T20:18:28.722Z,7.32
2019-03-23T20:21:02.745Z,7.32
2019-03-23T20:23:36.479Z,7.18
2019-03-23T20:26:10.475Z,7.24
2019-03-23T20:28:44.306Z,7.33
2019-03-23T20:31:18.444Z,7.23
2019-03-23T20:33:53.081Z,7.16
2019-03-23T20:36:27.165Z,7.25
2019-03-23T20:39:01.515Z,7.06
2019-03-23T20:41:37.137Z,7.05
2019-03-23T20:44:11.276Z,7.02
2019-03-23T20:46:45.056Z,6.95
